Accueil
METAR-TAF:

METAR-TAF

Aéroports :

Aéroport de Valladolid

Valladolid, Espagne

latitude: 41-43N, longitude: 004-51W, altitude: 849 m

Observation

Le bulletin a été fait il y a 23 minutes, à 02:00 UTC
Vent 10 kt de est/nord-est
Température 0°C
Humidité 74%
Pression 1021 hPa
Visibilité 10 km ou plus
pas de nuages en-dessous de 1500 mètres et pas de cumulonimbus.

METAR: LEVD 170200Z AUTO 07010KT CAVOK M00/M04 Q1021

Heure: 04:23 (02:23 UTC)

Prévision

Le bulletin a été fait il y a 6 heures et 23 minutes, à 20:00 UTC
Prévision valable du 16 à 21 UTC au 17 à 21 UTC
Vent 12 kt de est/nord-est
Visibilité 10 km ou plus
pas de nuages en-dessous de 1500 mètres et pas de cumulonimbus.

TAF: LEVD 162000Z 1621/1721 06012KT CAVOK TX13/1715Z TN00/1706Z

Observations et prévisions météorologiques de plus de 4000 aéroports (messages METAR et TAF).

Les stations disponibles sont représentées par des disques jaunes et rouges sur la carte.

Passer la souris dessus pour voir le nom de la station.

Cliquer dessus pour voir les observations et prévisions météorologiques.

Pour changer de carte: cliquez sur les boutons verts avec une croix noire pour zoomer, sur le bouton vert avec un tiret pour effectuer un zoom arrière, ou sur les flèches vertes pour les cartes adjacentes.


METAR-TAF: